createdAt,value
2019-03-26T00:02:33.190Z,1.80
2019-03-26T00:07:26.052Z,2.50
2019-03-26T00:12:17.677Z,1.80
2019-03-26T00:17:11.868Z,1.80
2019-03-26T00:22:05.302Z,2.40
2019-03-26T00:26:57.186Z,2.00
2019-03-26T00:31:51.174Z,3.00
2019-03-26T00:36:43.145Z,1.50
2019-03-26T00:41:37.012Z,2.30
2019-03-26T00:46:30.510Z,2.80
2019-03-26T00:51:24.113Z,2.40
2019-03-26T00:56:17.655Z,4.30
2019-03-26T01:01:10.941Z,2.90
2019-03-26T01:06:02.358Z,2.40
2019-03-26T01:10:54.242Z,1.60
2019-03-26T01:15:46.190Z,2.90
2019-03-26T01:20:38.947Z,2.30
2019-03-26T01:25:30.789Z,3.30
2019-03-26T01:30:22.933Z,2.40
2019-03-26T01:35:14.838Z,2.70
2019-03-26T01:40:06.662Z,1.90
2019-03-26T01:44:58.833Z,1.60
2019-03-26T01:49:50.672Z,1.60
2019-03-26T01:54:44.430Z,2.20
2019-03-26T01:59:35.750Z,1.70
2019-03-26T02:04:27.610Z,2.20
2019-03-26T02:09:19.623Z,1.80
2019-03-26T02:14:11.644Z,2.40
2019-03-26T02:19:03.380Z,2.10
2019-03-26T02:23:55.457Z,1.40
2019-03-26T02:28:50.229Z,2.00
2019-03-26T02:33:41.397Z,2.10
2019-03-26T02:38:33.122Z,2.40
2019-03-26T02:43:25.159Z,2.00
2019-03-26T02:48:16.917Z,2.80
2019-03-26T02:53:10.842Z,1.80
2019-03-26T02:58:02.387Z,2.40
2019-03-26T03:02:54.279Z,2.20
2019-03-26T03:07:46.165Z,2.50
2019-03-26T03:12:38.218Z,3.60
2019-03-26T03:17:30.003Z,1.20
2019-03-26T03:22:21.812Z,1.90
2019-03-26T03:27:13.469Z,1.50
2019-03-26T03:32:05.329Z,1.80
2019-03-26T03:36:57.234Z,1.30
2019-03-26T03:41:51.238Z,2.40
2019-03-26T03:46:42.719Z,1.50
2019-03-26T03:51:34.724Z,1.90
2019-03-26T03:56:26.708Z,2.10
2019-03-26T04:01:18.379Z,3.70
2019-03-26T04:06:10.840Z,2.50
2019-03-26T04:11:02.555Z,2.00
2019-03-26T04:15:54.372Z,1.60
2019-03-26T04:20:46.274Z,2.70
2019-03-26T04:25:38.181Z,1.50
2019-03-26T04:30:32.034Z,2.60
2019-03-26T04:35:23.379Z,1.40
2019-03-26T04:40:15.111Z,1.70
2019-03-26T04:45:06.971Z,2.10
2019-03-26T04:49:59.279Z,1.70
2019-03-26T04:54:51.228Z,1.50
2019-03-26T04:59:43.040Z,2.60
2019-03-26T05:04:34.952Z,2.00
2019-03-26T05:09:26.736Z,2.00
2019-03-26T05:14:18.706Z,1.60
2019-03-26T05:19:10.436Z,2.80
2019-03-26T05:24:02.506Z,1.50
2019-03-26T05:28:54.571Z,2.10
2019-03-26T05:33:46.435Z,2.20
2019-03-26T05:38:40.153Z,1.70
2019-03-26T05:43:31.474Z,1.90
2019-03-26T05:48:23.309Z,2.10
2019-03-26T05:53:15.243Z,2.00
2019-03-26T05:58:07.089Z,3.30
2019-03-26T06:02:58.887Z,1.80
2019-03-26T06:07:51.144Z,1.80
2019-03-26T06:12:43.059Z,2.70
2019-03-26T06:17:36.130Z,3.00
2019-03-26T06:22:27.521Z,1.80
2019-03-26T06:27:19.244Z,1.50
2019-03-26T06:32:14.309Z,2.50
2019-03-26T06:42:15.320Z,3.10
2019-03-26T06:47:07.030Z,2.70
2019-03-26T06:51:58.918Z,2.50
2019-03-26T06:56:50.851Z,2.00
2019-03-26T07:01:42.962Z,2.40
2019-03-26T07:06:35.094Z,2.30
2019-03-26T07:11:28.990Z,1.60
2019-03-26T07:16:20.844Z,2.30
2019-03-26T07:21:12.710Z,1.40
2019-03-26T07:26:04.737Z,2.70
2019-03-26T07:30:56.625Z,2.20
2019-03-26T07:35:48.545Z,3.10
2019-03-26T07:40:40.519Z,2.20
2019-03-26T07:45:32.356Z,2.50
2019-03-26T07:50:24.926Z,2.40
2019-03-26T07:55:16.895Z,3.60
2019-03-26T08:00:08.767Z,2.50
2019-03-26T08:05:00.886Z,3.30
2019-03-26T08:09:52.721Z,2.60
2019-03-26T08:14:45.021Z,2.10
2019-03-26T08:19:37.473Z,1.90
2019-03-26T08:24:29.539Z,2.20
2019-03-26T08:29:21.776Z,2.40
2019-03-26T08:34:14.100Z,2.00
2019-03-26T08:39:06.129Z,1.40
2019-03-26T08:43:58.377Z,1.70
2019-03-26T08:48:50.533Z,2.90
2019-03-26T08:53:42.589Z,1.30
2019-03-26T08:58:34.847Z,1.30
2019-03-26T09:03:26.947Z,2.10
2019-03-26T09:08:25.451Z,1.70
2019-03-26T09:13:16.229Z,3.20
2019-03-26T09:18:07.810Z,2.20
2019-03-26T09:22:59.353Z,2.00
2019-03-26T09:27:52.910Z,2.10
2019-03-26T09:32:45.061Z,1.50
2019-03-26T09:37:36.826Z,1.50
2019-03-26T09:42:28.606Z,2.50
2019-03-26T09:47:22.792Z,2.00
2019-03-26T09:52:14.136Z,2.00
2019-03-26T09:57:05.908Z,2.30
2019-03-26T10:01:57.607Z,1.70
2019-03-26T10:06:49.676Z,1.40
2019-03-26T10:11:41.454Z,2.20
2019-03-26T10:16:33.462Z,2.10
2019-03-26T10:21:27.661Z,1.70
2019-03-26T10:26:19.467Z,2.80
2019-03-26T10:31:11.900Z,1.60
2019-03-26T10:36:04.288Z,2.20
2019-03-26T10:40:56.763Z,2.20
2019-03-26T10:45:49.637Z,2.70
2019-03-26T10:50:42.371Z,1.50
2019-03-26T10:55:34.856Z,2.20
2019-03-26T11:00:27.436Z,2.70
2019-03-26T11:05:20.213Z,2.30
2019-03-26T11:10:12.648Z,2.50
2019-03-26T11:15:07.185Z,2.30
2019-03-26T11:19:59.160Z,1.30
2019-03-26T11:24:51.554Z,2.80
2019-03-26T11:29:45.466Z,1.80
2019-03-26T11:34:36.665Z,1.30
2019-03-26T11:39:33.516Z,2.00
2019-03-26T11:44:24.402Z,1.90
2019-03-26T11:49:17.799Z,1.80
2019-03-26T11:54:09.350Z,1.00
2019-03-26T11:59:01.175Z,1.40
2019-03-26T12:03:53.118Z,1.40
2019-03-26T12:08:45.029Z,1.80
2019-03-26T12:13:36.785Z,1.80
2019-03-26T12:18:28.746Z,2.80
2019-03-26T12:23:20.670Z,2.30
2019-03-26T12:28:12.401Z,1.10
2019-03-26T12:33:04.453Z,2.00
2019-03-26T12:37:56.566Z,1.80
2019-03-26T12:42:48.598Z,1.60
2019-03-26T12:47:40.302Z,1.80
2019-03-26T12:52:32.573Z,2.20
2019-03-26T12:57:24.371Z,1.90
2019-03-26T13:02:16.768Z,1.40
2019-03-26T13:07:09.061Z,2.00
2019-03-26T13:12:01.320Z,1.50
2019-03-26T13:16:53.249Z,3.80
2019-03-26T13:21:45.183Z,1.60
2019-03-26T13:26:39.137Z,2.20
2019-03-26T13:31:30.631Z,2.70
2019-03-26T13:36:22.864Z,1.50
2019-03-26T13:41:15.135Z,2.00
2019-03-26T13:46:07.265Z,2.80
2019-03-26T13:51:01.576Z,3.00
2019-03-26T13:55:55.236Z,3.30
2019-03-26T14:00:46.590Z,2.60
2019-03-26T14:05:38.501Z,2.80
2019-03-26T14:10:40.992Z,1.80
2019-03-26T14:15:31.052Z,2.40
2019-03-26T14:20:23.218Z,1.90
2019-03-26T14:25:17.487Z,3.00
2019-03-26T14:30:08.931Z,1.80
2019-03-26T14:35:00.816Z,2.70
2019-03-26T14:39:54.969Z,2.90
2019-03-26T14:44:49.905Z,2.80
2019-03-26T14:49:41.318Z,2.30
2019-03-26T14:54:33.173Z,3.80
2019-03-26T14:59:25.310Z,2.60
2019-03-26T15:04:19.426Z,2.70
2019-03-26T15:09:10.952Z,1.80
2019-03-26T15:14:02.949Z,2.20
2019-03-26T15:18:54.893Z,2.50
2019-03-26T15:23:46.780Z,2.10
2019-03-26T15:28:40.930Z,2.00
2019-03-26T15:33:34.407Z,1.80
2019-03-26T15:38:25.792Z,2.70
2019-03-26T15:43:17.598Z,1.40
2019-03-26T15:48:09.678Z,2.00
2019-03-26T15:53:01.803Z,2.90
2019-03-26T15:57:53.977Z,1.70
2019-03-26T16:02:46.305Z,1.70
2019-03-26T16:07:38.599Z,2.00
2019-03-26T16:12:40.771Z,2.50
2019-03-26T16:17:31.288Z,2.40
2019-03-26T16:22:23.383Z,2.30
2019-03-26T16:27:15.700Z,1.90
2019-03-26T16:32:07.711Z,1.90
2019-03-26T16:37:00.594Z,1.20
2019-03-26T16:41:52.232Z,1.60
2019-03-26T16:46:44.016Z,2.10
2019-03-26T16:51:35.880Z,3.00
2019-03-26T16:56:27.751Z,2.40
2019-03-26T17:01:21.479Z,2.40
2019-03-26T17:06:12.937Z,1.80
2019-03-26T17:11:05.457Z,1.70
2019-03-26T17:15:57.635Z,2.60
2019-03-26T17:20:49.652Z,1.30
2019-03-26T17:25:41.409Z,2.20
2019-03-26T17:30:33.565Z,1.90
2019-03-26T17:35:25.568Z,2.80
2019-03-26T17:40:17.480Z,2.40
2019-03-26T17:45:09.750Z,2.10
2019-03-26T17:50:02.858Z,3.10
2019-03-26T17:54:54.740Z,1.80
2019-03-26T17:59:46.704Z,1.60
2019-03-26T18:04:38.756Z,2.90
2019-03-26T18:09:30.594Z,2.80
2019-03-26T18:14:22.841Z,3.40
2019-03-26T18:19:14.732Z,2.80
2019-03-26T18:24:06.509Z,4.00
2019-03-26T18:28:58.437Z,4.20
2019-03-26T18:33:50.714Z,3.80
2019-03-26T18:38:42.459Z,5.00
2019-03-26T18:43:34.517Z,4.20
2019-03-26T18:48:28.709Z,5.30
2019-03-26T18:53:20.355Z,6.10
2019-03-26T18:58:14.495Z,6.90
2019-03-26T19:03:05.891Z,4.40
2019-03-26T19:07:59.963Z,3.30
2019-03-26T19:12:57.378Z,3.70
2019-03-26T19:17:48.085Z,3.00
2019-03-26T19:22:40.085Z,4.10
2019-03-26T19:27:32.079Z,2.20
2019-03-26T19:32:26.195Z,3.20
2019-03-26T19:37:17.855Z,4.00
2019-03-26T19:42:09.732Z,3.70
2019-03-26T19:47:01.759Z,3.60
2019-03-26T19:51:53.567Z,4.50
2019-03-26T19:56:45.666Z,3.70
2019-03-26T20:01:37.525Z,3.40
2019-03-26T20:06:29.562Z,4.80
2019-03-26T20:11:21.228Z,3.10
2019-03-26T20:16:13.268Z,3.80
2019-03-26T20:21:05.187Z,3.20
2019-03-26T20:25:57.161Z,3.60
2019-03-26T20:30:48.966Z,4.30
2019-03-26T20:35:40.977Z,4.60
2019-03-26T20:40:32.956Z,3.70
2019-03-26T20:45:27.186Z,4.40
2019-03-26T20:50:18.462Z,4.10
2019-03-26T20:55:10.431Z,3.80
2019-03-26T21:00:02.323Z,5.40
2019-03-26T21:04:56.661Z,4.30
2019-03-26T21:09:50.449Z,5.60
2019-03-26T21:14:42.288Z,4.90
2019-03-26T21:19:34.091Z,6.30
2019-03-26T21:24:26.106Z,5.20
2019-03-26T21:29:18.051Z,4.80
2019-03-26T21:34:10.040Z,7.40
2019-03-26T21:39:02.143Z,5.70
2019-03-26T21:44:04.374Z,5.80
2019-03-26T21:48:54.650Z,4.50
2019-03-26T21:53:48.501Z,5.50
2019-03-26T21:58:40.181Z,4.70
2019-03-26T22:03:32.209Z,4.30
2019-03-26T22:08:24.462Z,5.40
2019-03-26T22:13:15.914Z,5.00
2019-03-26T22:18:08.432Z,4.30
2019-03-26T22:23:00.643Z,4.40
2019-03-26T22:27:56.241Z,5.00
2019-03-26T22:32:47.059Z,4.80
2019-03-26T22:37:40.966Z,5.20
2019-03-26T22:42:32.519Z,5.60
2019-03-26T22:47:26.483Z,6.70
2019-03-26T22:52:17.796Z,4.40
2019-03-26T22:57:09.750Z,4.80
2019-03-26T23:02:01.615Z,5.40
2019-03-26T23:06:53.625Z,5.90
2019-03-26T23:11:45.232Z,6.60
2019-03-26T23:16:37.132Z,5.90
2019-03-26T23:21:31.241Z,6.70
2019-03-26T23:26:22.745Z,5.40
2019-03-26T23:31:14.834Z,6.50
2019-03-26T23:36:06.763Z,5.70
2019-03-26T23:40:59.088Z,6.40
2019-03-26T23:45:50.845Z,7.40
2019-03-26T23:50:42.684Z,7.40
2019-03-26T23:55:34.465Z,7.20
